createdAt,value
2023-03-17T00:00:21.865Z,6.80
2023-03-17T00:02:50.636Z,6.15
2023-03-17T00:05:17.923Z,6.60
2023-03-17T00:07:46.226Z,5.55
2023-03-17T00:10:32.300Z,7.45
2023-03-17T00:12:59.887Z,8.05
2023-03-17T00:15:27.832Z,5.20
2023-03-17T00:17:55.874Z,7.28
2023-03-17T00:20:24.659Z,5.93
2023-03-17T00:22:51.966Z,7.07
2023-03-17T00:25:20.976Z,5.72
2023-03-17T00:27:49.594Z,6.68
2023-03-17T00:30:17.457Z,6.72
2023-03-17T00:32:45.367Z,7.55
2023-03-17T00:35:16.257Z,5.50
2023-03-17T00:37:44.003Z,4.97
2023-03-17T00:40:31.205Z,6.72
2023-03-17T00:43:05.939Z,6.15
2023-03-17T00:45:33.121Z,4.65
2023-03-17T00:48:00.700Z,6.60
2023-03-17T00:50:29.307Z,6.22
2023-03-17T00:52:58.066Z,7.80
2023-03-17T00:55:26.579Z,8.15
2023-03-17T00:57:53.890Z,5.68
2023-03-17T01:00:25.445Z,7.00
2023-03-17T01:02:55.958Z,7.50
2023-03-17T01:05:24.225Z,5.15
2023-03-17T01:07:53.795Z,8.57
2023-03-17T01:10:25.981Z,8.18
2023-03-17T01:12:54.513Z,8.98
2023-03-17T01:15:22.148Z,5.90
2023-03-17T01:17:52.901Z,6.20
2023-03-17T01:20:21.674Z,5.85
2023-03-17T01:22:49.233Z,6.40
2023-03-17T01:25:17.067Z,6.90
2023-03-17T01:27:45.088Z,6.22
2023-03-17T01:30:23.252Z,6.10
2023-03-17T01:32:51.030Z,7.93
2023-03-17T01:35:18.956Z,5.18
2023-03-17T01:37:46.850Z,5.68
2023-03-17T01:40:28.131Z,8.15
2023-03-17T01:43:00.514Z,7.65
2023-03-17T01:45:46.457Z,6.70
2023-03-17T01:48:15.231Z,7.43
2023-03-17T01:50:42.709Z,7.68
2023-03-17T01:53:11.753Z,5.72
2023-03-17T01:55:39.114Z,6.72
2023-03-17T01:58:07.037Z,7.78
2023-03-17T02:00:34.813Z,7.70
2023-03-17T02:03:01.972Z,8.63
2023-03-17T02:05:31.016Z,6.55
2023-03-17T02:07:58.649Z,5.88
2023-03-17T02:10:27.351Z,6.78
2023-03-17T02:12:57.038Z,6.00
2023-03-17T02:15:24.206Z,7.50
2023-03-17T02:17:51.880Z,6.95
2023-03-17T02:20:18.976Z,5.38
2023-03-17T02:22:47.595Z,5.72
2023-03-17T02:25:14.870Z,5.53
2023-03-17T02:27:47.017Z,7.72
2023-03-17T02:30:17.184Z,8.73
2023-03-17T02:32:44.297Z,7.57
2023-03-17T02:35:11.768Z,7.18
2023-03-17T02:37:38.967Z,8.35
2023-03-17T02:40:07.126Z,6.18
2023-03-17T02:42:35.665Z,7.20
2023-03-17T02:45:03.225Z,6.50
2023-03-17T02:47:30.397Z,8.73
2023-03-17T02:49:57.600Z,7.72
2023-03-17T02:52:25.100Z,8.38
2023-03-17T02:54:52.216Z,6.13
2023-03-17T02:57:19.340Z,6.63
2023-03-17T02:59:46.512Z,5.40
2023-03-17T03:02:14.215Z,5.60
2023-03-17T03:04:41.855Z,7.68
2023-03-17T03:07:09.016Z,4.85
2023-03-17T03:09:36.663Z,5.85
2023-03-17T03:12:04.608Z,4.97
2023-03-17T03:14:32.493Z,5.88
2023-03-17T03:16:59.626Z,5.30
2023-03-17T03:19:26.707Z,8.30
2023-03-17T03:21:53.819Z,8.00
2023-03-17T03:24:21.418Z,7.32
2023-03-17T03:26:48.590Z,7.18
2023-03-17T03:29:16.767Z,5.47
2023-03-17T03:31:43.899Z,10.80
2023-03-17T03:34:11.032Z,9.50
2023-03-17T03:36:38.171Z,6.43
2023-03-17T03:39:05.244Z,5.43
2023-03-17T03:41:32.356Z,6.25
2023-03-17T03:43:59.652Z,6.50
2023-03-17T03:46:26.917Z,9.73
2023-03-17T03:48:54.545Z,7.53
2023-03-17T03:51:21.688Z,4.60
2023-03-17T03:53:48.828Z,5.07
2023-03-17T03:56:15.917Z,8.68
2023-03-17T03:58:43.101Z,6.78
2023-03-17T04:01:10.817Z,6.60
2023-03-17T04:03:38.690Z,7.13
2023-03-17T04:06:06.290Z,6.13
2023-03-17T04:08:33.628Z,7.85
2023-03-17T04:11:00.735Z,6.85
2023-03-17T04:13:28.056Z,5.90
2023-03-17T04:15:55.203Z,7.88
2023-03-17T04:18:22.362Z,5.15
2023-03-17T04:20:49.466Z,5.85
2023-03-17T04:23:17.260Z,6.60
2023-03-17T04:25:44.958Z,6.97
2023-03-17T04:28:12.194Z,7.63
2023-03-17T04:30:39.304Z,10.88
2023-03-17T04:33:07.197Z,6.88
2023-03-17T04:35:34.566Z,8.05
2023-03-17T04:38:01.764Z,8.18
2023-03-17T04:40:29.145Z,6.47
2023-03-17T04:42:56.344Z,7.13
2023-03-17T04:45:23.485Z,8.05
2023-03-17T04:47:50.912Z,7.20
2023-03-17T04:50:18.057Z,5.80
2023-03-17T04:52:46.544Z,9.07
2023-03-17T04:55:13.788Z,7.22
2023-03-17T04:57:42.034Z,8.20
2023-03-17T05:00:10.232Z,5.50
2023-03-17T05:02:38.845Z,4.63
2023-03-17T05:05:06.180Z,6.53
2023-03-17T05:07:34.235Z,5.60
2023-03-17T05:10:02.176Z,7.22
2023-03-17T05:12:29.361Z,6.93
2023-03-17T05:14:56.540Z,6.65
2023-03-17T05:17:23.663Z,7.72
2023-03-17T05:19:50.993Z,10.27
2023-03-17T05:22:18.141Z,6.18
2023-03-17T05:24:45.391Z,7.70
2023-03-17T05:27:12.575Z,11.45
2023-03-17T05:29:39.799Z,5.15
2023-03-17T05:32:07.551Z,8.85
2023-03-17T05:34:34.698Z,10.52
2023-03-17T05:37:01.793Z,22.35
2023-03-17T05:39:28.929Z,10.02
2023-03-17T05:41:57.140Z,6.50
2023-03-17T05:44:24.698Z,7.00
2023-03-17T05:46:51.782Z,7.80
2023-03-17T05:49:19.164Z,6.28
2023-03-17T05:51:46.430Z,7.35
2023-03-17T05:54:14.015Z,7.38
2023-03-17T05:56:42.670Z,7.28
2023-03-17T05:59:10.585Z,7.00
2023-03-17T06:01:37.747Z,6.57
2023-03-17T06:04:04.937Z,5.05
2023-03-17T06:06:32.258Z,8.50
2023-03-17T06:08:59.721Z,6.32
2023-03-17T06:11:26.881Z,4.93
2023-03-17T06:13:54.230Z,4.38
2023-03-17T06:16:21.385Z,4.72
2023-03-17T06:18:48.703Z,4.63
2023-03-17T06:21:16.258Z,8.25
2023-03-17T06:23:43.577Z,7.25
2023-03-17T06:26:10.978Z,4.15
2023-03-17T06:28:38.113Z,3.90
2023-03-17T06:31:07.245Z,4.18
2023-03-17T06:33:34.626Z,3.42
2023-03-17T06:36:01.847Z,4.57
2023-03-17T06:38:28.937Z,6.63
2023-03-17T06:40:56.309Z,4.88
2023-03-17T06:43:24.797Z,4.47
2023-03-17T06:45:52.557Z,4.80
2023-03-17T06:48:19.970Z,6.70
2023-03-17T06:50:47.738Z,4.07
2023-03-17T06:53:14.852Z,4.55
2023-03-17T06:55:42.124Z,4.47
2023-03-17T06:58:10.628Z,6.55
2023-03-17T07:00:40.735Z,4.57
2023-03-17T07:03:09.938Z,6.57
2023-03-17T07:05:38.083Z,7.82
2023-03-17T07:08:05.237Z,7.30
2023-03-17T07:10:33.232Z,6.22
2023-03-17T07:13:00.551Z,6.18
2023-03-17T07:15:27.736Z,4.55
2023-03-17T07:17:54.931Z,5.55
2023-03-17T07:20:22.064Z,6.78
2023-03-17T07:22:49.272Z,4.57
2023-03-17T07:25:16.524Z,6.78
2023-03-17T07:27:43.836Z,6.45
2023-03-17T07:30:11.307Z,4.28
2023-03-17T07:32:38.497Z,5.20
2023-03-17T07:35:07.297Z,3.97
2023-03-17T07:37:34.638Z,6.28
2023-03-17T07:40:01.874Z,4.53
2023-03-17T07:42:28.989Z,20.33
2023-03-17T07:44:56.244Z,4.82
2023-03-17T07:47:23.421Z,7.65
2023-03-17T07:49:50.525Z,4.32
2023-03-17T07:52:17.662Z,4.07
2023-03-17T07:54:44.778Z,5.68
2023-03-17T07:57:12.607Z,4.50
2023-03-17T07:59:40.258Z,3.08
2023-03-17T08:02:08.458Z,5.00
2023-03-17T08:04:35.581Z,5.13
2023-03-17T08:07:03.190Z,5.63
2023-03-17T08:09:30.645Z,4.80
2023-03-17T08:11:57.879Z,4.90
2023-03-17T08:14:25.173Z,6.50
2023-03-17T08:16:54.177Z,9.75
2023-03-17T08:19:22.002Z,5.32
2023-03-17T08:21:49.123Z,11.25
2023-03-17T08:24:16.456Z,10.98
2023-03-17T08:26:43.652Z,9.50
2023-03-17T08:29:10.869Z,3.60
2023-03-17T08:31:38.117Z,5.10
2023-03-17T08:34:05.311Z,4.75
2023-03-17T08:36:32.945Z,2.45
2023-03-17T08:39:00.205Z,3.70
2023-03-17T08:41:28.224Z,9.88
2023-03-17T08:43:56.054Z,3.13
2023-03-17T08:46:23.207Z,8.60
2023-03-17T08:48:51.568Z,2.42
2023-03-17T08:51:21.530Z,3.38
2023-03-17T08:53:51.247Z,4.50
2023-03-17T08:56:18.495Z,3.85
2023-03-17T08:58:45.873Z,1.90
2023-03-17T09:01:13.687Z,2.17
2023-03-17T09:03:41.128Z,4.85
2023-03-17T09:06:11.191Z,19.75
2023-03-17T09:08:39.968Z,3.55
2023-03-17T09:11:07.792Z,7.90
2023-03-17T09:13:37.884Z,6.10
2023-03-17T09:16:05.634Z,4.10
2023-03-17T09:18:33.261Z,7.63
2023-03-17T09:21:00.413Z,4.25
2023-03-17T09:23:27.688Z,1.90
2023-03-17T09:25:54.902Z,3.03
2023-03-17T09:28:22.031Z,1.60
2023-03-17T09:30:49.690Z,2.80
2023-03-17T09:33:18.067Z,1.70
2023-03-17T09:35:45.374Z,1.75
2023-03-17T09:38:12.781Z,3.03
2023-03-17T09:40:53.224Z,1.50
2023-03-17T09:43:39.480Z,3.05
2023-03-17T09:46:27.218Z,3.05
2023-03-17T09:49:00.196Z,1.80
2023-03-17T09:51:29.076Z,1.88
2023-03-17T09:54:02.378Z,1.73
2023-03-17T09:56:31.022Z,3.10
2023-03-17T09:58:59.359Z,2.65
2023-03-17T10:01:26.623Z,2.05
2023-03-17T10:03:53.878Z,2.30
2023-03-17T10:06:42.559Z,2.88
2023-03-17T10:09:18.951Z,1.80
2023-03-17T10:11:51.379Z,5.82
2023-03-17T10:14:36.120Z,1.90
2023-03-17T10:17:06.670Z,2.80
2023-03-17T10:19:38.607Z,3.03
2023-03-17T10:22:07.839Z,2.50
2023-03-17T10:24:35.561Z,1.50
2023-03-17T10:27:07.131Z,1.90
2023-03-17T10:29:34.529Z,1.20
2023-03-17T10:32:01.739Z,1.73
2023-03-17T10:34:32.851Z,2.13
2023-03-17T10:37:07.509Z,3.40
2023-03-17T10:39:42.925Z,1.30
2023-03-17T10:42:11.464Z,1.38
2023-03-17T10:44:49.056Z,2.55
2023-03-17T10:47:24.662Z,1.30
2023-03-17T10:49:52.601Z,1.48
2023-03-17T10:52:22.036Z,1.25
2023-03-17T10:54:51.352Z,1.58
2023-03-17T10:57:18.574Z,2.80
2023-03-17T10:59:53.725Z,2.95
2023-03-17T11:02:20.924Z,1.50
2023-03-17T11:04:48.438Z,1.35
2023-03-17T11:07:17.533Z,1.63
2023-03-17T11:09:44.741Z,0.85
2023-03-17T11:12:27.205Z,1.48
2023-03-17T11:15:01.339Z,2.03
2023-03-17T11:17:39.778Z,1.48
2023-03-17T11:20:24.840Z,1.73
2023-03-17T11:23:12.886Z,3.67
2023-03-17T11:25:42.411Z,1.67
2023-03-17T11:28:22.763Z,1.15
2023-03-17T11:30:50.140Z,1.27
2023-03-17T11:33:35.614Z,1.08
2023-03-17T11:36:20.522Z,1.10
2023-03-17T11:38:50.848Z,1.27
2023-03-17T11:41:27.165Z,2.42
2023-03-17T11:43:59.497Z,2.95
2023-03-17T11:46:30.061Z,1.55
2023-03-17T11:48:57.244Z,1.95
2023-03-17T11:51:38.671Z,3.05
2023-03-17T11:54:12.034Z,3.65
2023-03-17T11:56:46.303Z,2.20
2023-03-17T11:59:26.083Z,1.73
2023-03-17T12:01:56.857Z,1.27
2023-03-17T12:04:30.116Z,2.22
2023-03-17T12:07:01.304Z,3.67
2023-03-17T12:09:33.053Z,4.68
2023-03-17T12:12:01.707Z,2.55
2023-03-17T12:14:28.766Z,1.33
2023-03-17T12:17:13.247Z,7.85
2023-03-17T12:19:46.640Z,2.25
2023-03-17T12:22:28.327Z,2.85
2023-03-17T12:25:05.595Z,4.35
2023-03-17T12:27:34.187Z,1.15
2023-03-17T12:30:03.394Z,2.33
2023-03-17T12:32:38.569Z,1.48
2023-03-17T12:35:18.100Z,1.00
2023-03-17T12:37:45.589Z,2.92
2023-03-17T12:40:20.219Z,1.98
2023-03-17T12:42:52.317Z,2.17
2023-03-17T12:45:42.735Z,2.22
2023-03-17T12:48:15.862Z,1.17
2023-03-17T12:51:06.440Z,0.80
2023-03-17T12:53:38.445Z,1.25
2023-03-17T12:56:11.823Z,1.27
2023-03-17T12:58:40.475Z,0.95
2023-03-17T13:01:10.368Z,1.13
2023-03-17T13:03:38.684Z,9.93
2023-03-17T13:06:10.253Z,1.45
2023-03-17T13:08:41.008Z,1.88
2023-03-17T13:11:16.241Z,1.30
2023-03-17T13:13:43.643Z,4.00
2023-03-17T13:16:29.925Z,1.10
2023-03-17T13:19:15.639Z,2.60
2023-03-17T13:21:49.950Z,3.72
2023-03-17T13:24:17.079Z,6.28
2023-03-17T13:26:55.066Z,1.13
2023-03-17T13:29:25.498Z,2.75
2023-03-17T13:31:52.664Z,3.13
2023-03-17T13:34:21.266Z,0.88
2023-03-17T13:36:54.592Z,6.13
2023-03-17T13:39:24.298Z,1.73
2023-03-17T13:42:15.736Z,1.38
2023-03-17T13:45:04.123Z,1.13
2023-03-17T13:47:35.523Z,1.55
2023-03-17T13:50:14.846Z,3.35
2023-03-17T13:52:42.019Z,4.72
2023-03-17T13:55:18.462Z,5.18
2023-03-17T13:57:57.270Z,3.53
2023-03-17T14:00:26.991Z,0.85
2023-03-17T14:02:59.811Z,3.67
2023-03-17T14:07:57.044Z,6.97
2023-03-17T14:10:25.367Z,1.80
2023-03-17T14:13:01.812Z,7.45
2023-03-17T14:15:33.372Z,1.98
2023-03-17T14:18:08.814Z,3.95
2023-03-17T14:20:36.072Z,3.35
2023-03-17T14:23:04.743Z,1.58
2023-03-17T14:25:36.460Z,4.70
2023-03-17T14:28:05.889Z,1.92
2023-03-17T14:30:33.855Z,1.90
2023-03-17T14:33:01.034Z,1.85
2023-03-17T14:35:37.410Z,0.82
2023-03-17T14:38:14.220Z,2.97
2023-03-17T14:40:41.322Z,2.47
2023-03-17T14:43:08.573Z,0.95
2023-03-17T14:45:55.358Z,1.70
2023-03-17T14:48:32.942Z,1.48
2023-03-17T14:51:07.359Z,3.25
2023-03-17T14:53:41.721Z,3.58
2023-03-17T14:56:08.868Z,2.55
2023-03-17T14:58:43.409Z,1.17
2023-03-17T15:01:17.201Z,3.72
2023-03-17T15:04:06.084Z,1.42
2023-03-17T15:06:36.817Z,2.22
2023-03-17T15:09:05.717Z,9.18
2023-03-17T15:11:38.252Z,5.53
2023-03-17T15:14:25.906Z,1.27
2023-03-17T15:16:53.785Z,5.10
2023-03-17T15:19:29.610Z,2.45
2023-03-17T15:21:59.926Z,1.40
2023-03-17T15:24:34.902Z,1.17
2023-03-17T15:27:03.217Z,2.15
2023-03-17T15:29:31.001Z,7.65
2023-03-17T15:32:03.899Z,7.25
2023-03-17T15:34:31.191Z,4.20
2023-03-17T15:36:58.374Z,4.25
2023-03-17T15:39:25.724Z,4.88
2023-03-17T15:41:52.876Z,3.13
2023-03-17T15:44:20.035Z,3.25
2023-03-17T15:46:47.221Z,2.80
2023-03-17T15:49:14.388Z,1.45
2023-03-17T15:51:41.657Z,5.07
2023-03-17T15:54:12.234Z,2.35
2023-03-17T15:56:39.713Z,2.95
2023-03-17T15:59:06.857Z,2.45
2023-03-17T16:01:34.036Z,6.03
2023-03-17T16:04:01.832Z,3.67
2023-03-17T16:06:28.953Z,4.25
2023-03-17T16:08:56.193Z,5.93
2023-03-17T16:11:33.232Z,2.85
2023-03-17T16:14:00.684Z,2.28
2023-03-17T16:16:32.986Z,2.13
2023-03-17T16:19:00.290Z,2.70
2023-03-17T16:21:27.494Z,6.45
2023-03-17T16:23:54.956Z,5.28
2023-03-17T16:26:22.152Z,5.93
2023-03-17T16:28:49.848Z,6.05
2023-03-17T16:31:17.236Z,4.55
2023-03-17T16:33:44.521Z,5.10
2023-03-17T16:36:14.724Z,6.43
2023-03-17T16:38:41.865Z,9.80
2023-03-17T16:41:19.498Z,8.38
2023-03-17T16:43:50.945Z,8.93
2023-03-17T16:46:18.606Z,10.32
2023-03-17T16:48:45.845Z,6.68
2023-03-17T16:51:12.993Z,6.72
2023-03-17T16:53:40.247Z,9.15
2023-03-17T16:56:14.549Z,8.57
2023-03-17T16:58:42.086Z,10.27
2023-03-17T17:01:17.159Z,7.63
2023-03-17T17:03:44.709Z,7.47
2023-03-17T17:06:14.245Z,9.50
2023-03-17T17:08:44.893Z,9.07
2023-03-17T17:11:15.525Z,7.82
2023-03-17T17:13:43.599Z,8.65
2023-03-17T17:16:31.043Z,11.10
2023-03-17T17:18:59.051Z,6.60
2023-03-17T17:21:26.498Z,7.90
2023-03-17T17:23:54.035Z,7.25
2023-03-17T17:26:21.493Z,10.00
2023-03-17T17:28:48.694Z,8.10
2023-03-17T17:31:16.050Z,11.35
2023-03-17T17:33:43.172Z,10.57
2023-03-17T17:36:14.855Z,10.85
2023-03-17T17:38:42.413Z,11.90
2023-03-17T17:41:10.252Z,12.40
2023-03-17T17:43:37.389Z,12.05
2023-03-17T17:46:04.521Z,11.93
2023-03-17T17:48:31.644Z,11.45
2023-03-17T17:50:58.819Z,10.02
2023-03-17T17:53:26.047Z,12.88
2023-03-17T17:55:53.201Z,8.63
2023-03-17T17:58:23.428Z,10.63
2023-03-17T18:00:51.245Z,11.88
2023-03-17T18:03:22.236Z,8.73
2023-03-17T18:05:49.666Z,9.52
2023-03-17T18:08:17.123Z,9.10
2023-03-17T18:10:44.207Z,11.02
2023-03-17T18:13:11.303Z,12.73
2023-03-17T18:15:38.807Z,12.43
2023-03-17T18:18:06.060Z,6.97
2023-03-17T18:20:33.497Z,8.95
2023-03-17T18:23:00.866Z,9.75
2023-03-17T18:25:28.096Z,13.63
2023-03-17T18:27:55.792Z,25.40
2023-03-17T18:30:27.747Z,15.00
2023-03-17T18:33:00.163Z,17.55
2023-03-17T18:35:28.067Z,13.20
2023-03-17T18:37:57.351Z,11.88
2023-03-17T18:40:24.967Z,14.65
2023-03-17T18:42:52.220Z,13.90
2023-03-17T18:45:19.434Z,13.90
2023-03-17T18:47:46.601Z,16.92
2023-03-17T18:50:15.456Z,13.00
2023-03-17T18:52:43.779Z,37.95
2023-03-17T18:55:11.526Z,22.23
2023-03-17T18:57:38.884Z,13.85
2023-03-17T19:00:06.485Z,14.88
2023-03-17T19:02:33.735Z,13.30
2023-03-17T19:05:01.455Z,11.27
2023-03-17T19:07:28.632Z,11.82
2023-03-17T19:09:56.067Z,10.35
2023-03-17T19:12:23.794Z,9.90
2023-03-17T19:14:51.219Z,9.95
2023-03-17T19:17:18.431Z,13.35
2023-03-17T19:19:46.209Z,19.40
2023-03-17T19:22:14.146Z,17.77
2023-03-17T19:24:41.487Z,15.27
2023-03-17T19:27:08.716Z,15.90
2023-03-17T19:29:36.000Z,12.00
2023-03-17T19:32:03.132Z,10.20
2023-03-17T19:34:30.473Z,11.15
2023-03-17T19:36:57.628Z,12.65
2023-03-17T19:39:24.812Z,11.43
2023-03-17T19:41:55.183Z,17.00
2023-03-17T19:44:22.672Z,16.92
2023-03-17T19:46:51.002Z,12.65
2023-03-17T19:49:21.882Z,11.60
2023-03-17T19:51:49.533Z,12.13
2023-03-17T19:54:18.662Z,15.15
2023-03-17T19:56:45.842Z,13.60
2023-03-17T19:59:14.996Z,12.48
2023-03-17T20:01:42.697Z,10.15
2023-03-17T20:04:11.540Z,10.40
2023-03-17T20:06:38.870Z,11.90
2023-03-17T20:09:08.719Z,12.57
2023-03-17T20:11:36.438Z,10.50
2023-03-17T20:14:04.244Z,12.98
2023-03-17T20:16:33.559Z,11.27
2023-03-17T20:19:01.310Z,11.50
2023-03-17T20:21:28.972Z,10.55
2023-03-17T20:23:56.801Z,10.18
2023-03-17T20:26:24.461Z,8.30
2023-03-17T20:28:51.692Z,8.95
2023-03-17T20:31:19.313Z,7.68
2023-03-17T20:33:46.546Z,7.95
2023-03-17T20:36:13.949Z,8.35
2023-03-17T20:38:43.595Z,9.00
2023-03-17T20:41:12.140Z,9.23
2023-03-17T20:43:39.492Z,10.07
2023-03-17T20:46:08.814Z,9.70
2023-03-17T20:48:37.150Z,12.60
2023-03-17T20:51:06.415Z,9.88
2023-03-17T20:53:34.301Z,9.23
2023-03-17T20:56:01.517Z,8.52
2023-03-17T20:58:29.913Z,9.57
2023-03-17T21:00:58.402Z,11.45
2023-03-17T21:03:25.798Z,12.13
2023-03-17T21:05:53.412Z,10.48
2023-03-17T21:08:21.041Z,11.75
2023-03-17T21:10:48.197Z,19.15
2023-03-17T21:13:17.782Z,14.50
2023-03-17T21:15:45.349Z,6.82
2023-03-17T21:18:14.436Z,6.82
2023-03-17T21:20:42.269Z,7.65
2023-03-17T21:23:09.474Z,10.07
2023-03-17T21:25:37.115Z,8.55
2023-03-17T21:28:05.424Z,13.32
2023-03-17T21:30:34.014Z,11.55
2023-03-17T21:33:01.964Z,13.00
2023-03-17T21:35:30.486Z,15.32
2023-03-17T21:37:58.212Z,17.70
2023-03-17T21:40:26.190Z,15.20
2023-03-17T21:42:54.278Z,16.88
2023-03-17T21:45:21.941Z,20.02
2023-03-17T21:47:49.504Z,17.65
2023-03-17T21:50:17.789Z,17.73
2023-03-17T21:52:45.532Z,15.38
2023-03-17T21:55:12.793Z,19.00
2023-03-17T21:57:39.909Z,14.57
2023-03-17T22:00:07.971Z,9.80
2023-03-17T22:02:35.498Z,9.38
2023-03-17T22:05:02.755Z,12.20
2023-03-17T22:07:29.986Z,7.55
2023-03-17T22:09:57.822Z,8.50
2023-03-17T22:12:25.059Z,6.45
2023-03-17T22:14:52.251Z,11.38
2023-03-17T22:17:19.439Z,7.68
2023-03-17T22:19:48.597Z,10.02
2023-03-17T22:22:15.953Z,11.05
2023-03-17T22:24:43.390Z,8.70
2023-03-17T22:27:10.607Z,11.93
2023-03-17T22:29:38.081Z,14.23
2023-03-17T22:32:05.610Z,14.23
2023-03-17T22:34:32.753Z,12.38
2023-03-17T22:36:59.878Z,10.80
2023-03-17T22:39:27.786Z,11.20
2023-03-17T22:41:54.916Z,11.07
2023-03-17T22:44:22.154Z,11.93
2023-03-17T22:46:49.238Z,11.73
2023-03-17T22:49:16.824Z,11.05
2023-03-17T22:51:43.929Z,14.23
2023-03-17T22:54:12.187Z,14.13
2023-03-17T22:56:39.693Z,11.70
2023-03-17T22:59:06.892Z,11.23
2023-03-17T23:01:34.039Z,11.38
2023-03-17T23:04:01.922Z,11.18
2023-03-17T23:06:29.149Z,11.80
2023-03-17T23:08:56.359Z,9.85
2023-03-17T23:11:25.869Z,12.27
2023-03-17T23:13:53.816Z,10.07
2023-03-17T23:16:22.126Z,10.02
2023-03-17T23:18:49.372Z,13.07
2023-03-17T23:21:20.294Z,11.35
2023-03-17T23:23:47.402Z,9.90
2023-03-17T23:26:14.606Z,10.80
2023-03-17T23:28:44.292Z,10.10
2023-03-17T23:31:11.481Z,7.90
2023-03-17T23:33:39.298Z,7.18
2023-03-17T23:36:07.246Z,12.68
2023-03-17T23:38:34.371Z,11.20
2023-03-17T23:41:02.064Z,10.25
2023-03-17T23:43:29.214Z,10.18
2023-03-17T23:45:56.404Z,11.05
2023-03-17T23:48:24.864Z,10.48
2023-03-17T23:50:52.828Z,8.07
2023-03-17T23:53:20.615Z,10.65
2023-03-17T23:55:47.846Z,9.65
2023-03-17T23:58:15.555Z,8.10
